createdAt,value
2022-12-08T00:03:59.405Z,7.20
2022-12-08T00:14:03.480Z,7.50
2022-12-08T00:24:07.665Z,7.90
2022-12-08T00:34:14.233Z,7.30
2022-12-08T00:44:19.403Z,7.00
2022-12-08T00:54:23.976Z,7.10
2022-12-08T01:04:27.944Z,5.90
2022-12-08T01:14:31.967Z,10.20
2022-12-08T01:24:35.642Z,9.60
2022-12-08T01:34:39.855Z,8.40
2022-12-08T01:44:43.518Z,6.70
2022-12-08T01:54:57.107Z,9.10
2022-12-08T02:05:02.379Z,8.00
2022-12-08T02:15:06.736Z,7.40
2022-12-08T02:25:10.361Z,5.80
2022-12-08T02:35:19.348Z,6.90
2022-12-08T02:45:33.331Z,6.50
2022-12-08T02:55:55.758Z,7.30
2022-12-08T03:06:11.679Z,5.20
2022-12-08T03:16:20.205Z,6.80
2022-12-08T03:26:57.504Z,9.00
2022-12-08T03:37:02.844Z,5.50
2022-12-08T03:47:06.661Z,6.30
2022-12-08T03:57:10.301Z,6.20
2022-12-08T04:07:14.088Z,5.80
2022-12-08T04:17:17.859Z,6.80
2022-12-08T04:27:21.852Z,6.80
2022-12-08T04:37:25.611Z,8.80
2022-12-08T04:47:29.669Z,8.70
2022-12-08T04:57:33.441Z,8.80
2022-12-08T05:07:37.230Z,10.90
2022-12-08T05:17:41.092Z,8.60
2022-12-08T05:27:44.941Z,9.30
2022-12-08T05:37:48.815Z,10.20
2022-12-08T05:47:54.213Z,9.60
2022-12-08T05:57:59.955Z,9.30
2022-12-08T06:08:07.426Z,8.00
2022-12-08T06:18:12.282Z,6.90
2022-12-08T06:28:16.472Z,6.00
2022-12-08T06:38:20.518Z,8.60
2022-12-08T06:48:24.597Z,7.80
2022-12-08T06:58:28.683Z,9.70
2022-12-08T07:08:34.033Z,12.40
2022-12-08T07:18:38.657Z,12.30
2022-12-08T07:28:43.342Z,8.70
2022-12-08T07:38:48.051Z,8.50
2022-12-08T07:48:56.005Z,11.80
2022-12-08T08:09:04.041Z,8.30
2022-12-08T08:19:07.913Z,9.50
2022-12-08T08:29:11.987Z,6.60
2022-12-08T08:39:16.272Z,10.10
2022-12-08T08:49:20.518Z,7.10
2022-12-08T08:59:25.229Z,8.20
2022-12-08T09:09:28.996Z,5.90
2022-12-08T09:19:33.505Z,6.00
2022-12-08T09:29:38.683Z,5.40
2022-12-08T09:39:42.447Z,4.70
2022-12-08T09:50:07.984Z,4.00
2022-12-08T10:00:14.360Z,5.00
2022-12-08T10:10:42.255Z,6.50
2022-12-08T10:20:49.704Z,7.00
2022-12-08T10:30:54.342Z,5.70
2022-12-08T10:41:09.948Z,5.50
2022-12-08T10:51:28.554Z,6.70
2022-12-08T11:01:39.573Z,7.20
2022-12-08T11:11:59.539Z,6.60
2022-12-08T11:22:21.532Z,5.70
2022-12-08T11:32:25.468Z,6.60
2022-12-08T11:42:36.009Z,10.10
2022-12-08T11:52:47.349Z,5.10
2022-12-08T12:03:00.703Z,6.00
2022-12-08T12:13:30.583Z,7.00
2022-12-08T12:23:42.850Z,7.50
2022-12-08T12:33:49.469Z,6.20
2022-12-08T12:44:16.043Z,6.60
2022-12-08T12:54:22.596Z,5.80
2022-12-08T13:04:33.781Z,6.90
2022-12-08T13:14:47.165Z,6.00
2022-12-08T13:24:51.372Z,7.30
2022-12-08T13:35:00.465Z,6.30
2022-12-08T14:06:15.693Z,7.10
2022-12-08T14:16:37.182Z,9.00
2022-12-08T14:26:41.574Z,6.70
2022-12-08T14:36:46.055Z,8.50
2022-12-08T14:47:07.520Z,9.70
2022-12-08T14:57:15.326Z,7.00
2022-12-08T15:07:28.642Z,15.20
2022-12-08T15:17:40.947Z,16.70
2022-12-08T15:27:50.578Z,24.40
2022-12-08T15:37:54.817Z,26.30
2022-12-08T15:47:58.792Z,37.50
2022-12-08T15:58:52.555Z,48.20
2022-12-08T16:08:47.446Z,60.10
2022-12-08T16:18:53.470Z,43.30
2022-12-08T16:28:57.849Z,70.60
2022-12-08T16:39:02.931Z,82.30
2022-12-08T16:49:09.587Z,128.50
2022-12-08T16:59:13.664Z,105.70
2022-12-08T17:09:17.830Z,72.90
2022-12-08T17:19:21.855Z,62.50
2022-12-08T17:29:25.895Z,77.60
2022-12-08T17:39:30.060Z,88.50
2022-12-08T17:49:35.307Z,99.70
2022-12-08T17:59:41.064Z,105.30
2022-12-08T18:09:46.425Z,90.70
2022-12-08T18:19:50.875Z,97.20
2022-12-08T18:29:55.761Z,55.00
2022-12-08T18:40:00.634Z,126.00
2022-12-08T18:50:08.310Z,79.70
2022-12-08T19:00:16.706Z,111.90
2022-12-08T19:10:21.470Z,74.10
2022-12-08T19:20:29.732Z,69.20
2022-12-08T19:30:37.855Z,71.40
2022-12-08T19:41:04.384Z,82.30
2022-12-08T19:51:10.822Z,92.90
2022-12-08T20:01:17.990Z,90.70
2022-12-08T20:11:24.527Z,95.90
2022-12-08T20:21:30.916Z,89.10
2022-12-08T20:31:40.123Z,81.20
2022-12-08T20:41:47.822Z,91.70
2022-12-08T20:52:00.185Z,86.00
2022-12-08T21:02:04.963Z,92.00
2022-12-08T21:12:09.944Z,89.60
2022-12-08T21:22:15.200Z,82.20
2022-12-08T21:32:19.298Z,85.80
2022-12-08T21:42:41.823Z,84.70
2022-12-08T21:52:48.309Z,90.00
2022-12-08T22:02:52.992Z,83.80
2022-12-08T22:12:57.504Z,80.70
2022-12-08T22:23:01.938Z,75.90
2022-12-08T22:33:05.946Z,78.20
2022-12-08T22:43:10.104Z,82.80
2022-12-08T22:53:14.200Z,84.20
2022-12-08T23:03:18.280Z,77.50
2022-12-08T23:13:22.414Z,76.40
2022-12-08T23:23:26.068Z,77.10
2022-12-08T23:33:30.508Z,67.70
2022-12-08T23:43:34.804Z,76.80
2022-12-08T23:53:39.159Z,74.20
